sensor_id;sensor_type;location;lat;lon;timestamp;P1;durP1;ratioP1;P2;durP2;ratioP2
18661;SDS011;61528;49.456;11.098;2023-12-29T00:01:45;3.80;;;3.50;;
18661;SDS011;61528;49.456;11.098;2023-12-29T00:04:11;4.40;;;3.40;;
18661;SDS011;61528;49.456;11.098;2023-12-29T00:06:38;3.53;;;3.20;;
18661;SDS011;61528;49.456;11.098;2023-12-29T00:09:08;3.43;;;2.80;;
18661;SDS011;61528;49.456;11.098;2023-12-29T00:11:34;3.80;;;2.73;;
18661;SDS011;61528;49.456;11.098;2023-12-29T00:14:00;4.50;;;3.00;;
18661;SDS011;61528;49.456;11.098;2023-12-29T00:16:29;4.37;;;2.93;;
18661;SDS011;61528;49.456;11.098;2023-12-29T00:18:55;5.53;;;3.50;;
18661;SDS011;61528;49.456;11.098;2023-12-29T00:21:21;4.60;;;3.33;;
18661;SDS011;61528;49.456;11.098;2023-12-29T00:23:48;3.40;;;2.70;;
18661;SDS011;61528;49.456;11.098;2023-12-29T00:26:17;3.93;;;2.77;;
18661;SDS011;61528;49.456;11.098;2023-12-29T00:28:43;4.43;;;2.63;;
18661;SDS011;61528;49.456;11.098;2023-12-29T00:31:15;3.80;;;2.70;;
18661;SDS011;61528;49.456;11.098;2023-12-29T00:33:44;3.57;;;2.43;;
18661;SDS011;61528;49.456;11.098;2023-12-29T00:36:17;3.67;;;2.70;;
18661;SDS011;61528;49.456;11.098;2023-12-29T00:38:43;3.17;;;2.70;;
18661;SDS011;61528;49.456;11.098;2023-12-29T00:41:09;3.87;;;2.50;;
18661;SDS011;61528;49.456;11.098;2023-12-29T00:43:36;3.30;;;2.63;;
18661;SDS011;61528;49.456;11.098;2023-12-29T00:46:02;2.70;;;2.37;;
18661;SDS011;61528;49.456;11.098;2023-12-29T00:48:29;2.97;;;2.37;;
18661;SDS011;61528;49.456;11.098;2023-12-29T00:50:55;2.47;;;2.23;;
18661;SDS011;61528;49.456;11.098;2023-12-29T00:53:21;3.00;;;2.20;;
18661;SDS011;61528;49.456;11.098;2023-12-29T00:55:47;3.63;;;1.90;;
18661;SDS011;61528;49.456;11.098;2023-12-29T00:58:13;2.80;;;2.10;;
18661;SDS011;61528;49.456;11.098;2023-12-29T01:00:40;2.60;;;2.30;;
18661;SDS011;61528;49.456;11.098;2023-12-29T01:03:06;2.60;;;2.40;;
18661;SDS011;61528;49.456;11.098;2023-12-29T01:05:32;2.10;;;1.80;;
18661;SDS011;61528;49.456;11.098;2023-12-29T01:07:58;2.60;;;2.20;;
18661;SDS011;61528;49.456;11.098;2023-12-29T01:10:24;2.90;;;2.10;;
18661;SDS011;61528;49.456;11.098;2023-12-29T01:12:50;4.20;;;2.03;;
18661;SDS011;61528;49.456;11.098;2023-12-29T01:15:16;2.67;;;2.20;;
18661;SDS011;61528;49.456;11.098;2023-12-29T01:17:43;2.30;;;2.10;;
18661;SDS011;61528;49.456;11.098;2023-12-29T01:20:09;2.00;;;1.80;;
18661;SDS011;61528;49.456;11.098;2023-12-29T01:22:35;2.07;;;1.97;;
18661;SDS011;61528;49.456;11.098;2023-12-29T01:25:01;2.10;;;1.90;;
18661;SDS011;61528;49.456;11.098;2023-12-29T01:27:28;2.10;;;1.80;;
18661;SDS011;61528;49.456;11.098;2023-12-29T01:29:55;3.00;;;2.00;;
18661;SDS011;61528;49.456;11.098;2023-12-29T01:32:21;2.27;;;1.83;;
18661;SDS011;61528;49.456;11.098;2023-12-29T01:34:47;2.97;;;1.77;;
18661;SDS011;61528;49.456;11.098;2023-12-29T01:37:13;2.23;;;1.90;;
18661;SDS011;61528;49.456;11.098;2023-12-29T01:39:40;2.70;;;1.93;;
18661;SDS011;61528;49.456;11.098;2023-12-29T01:42:06;2.03;;;1.83;;
18661;SDS011;61528;49.456;11.098;2023-12-29T01:44:33;3.43;;;2.33;;
18661;SDS011;61528;49.456;11.098;2023-12-29T01:46:59;2.70;;;2.10;;
18661;SDS011;61528;49.456;11.098;2023-12-29T01:49:26;1.97;;;1.80;;
18661;SDS011;61528;49.456;11.098;2023-12-29T01:51:54;2.57;;;2.00;;
18661;SDS011;61528;49.456;11.098;2023-12-29T01:54:23;2.07;;;1.70;;
18661;SDS011;61528;49.456;11.098;2023-12-29T01:56:51;2.40;;;1.73;;
18661;SDS011;61528;49.456;11.098;2023-12-29T01:59:20;2.13;;;1.77;;
18661;SDS011;61528;49.456;11.098;2023-12-29T02:01:46;1.83;;;1.53;;
18661;SDS011;61528;49.456;11.098;2023-12-29T02:04:13;2.23;;;1.70;;
18661;SDS011;61528;49.456;11.098;2023-12-29T02:06:40;1.60;;;1.47;;
18661;SDS011;61528;49.456;11.098;2023-12-29T02:09:06;1.80;;;1.70;;
18661;SDS011;61528;49.456;11.098;2023-12-29T02:11:33;2.83;;;1.90;;
18661;SDS011;61528;49.456;11.098;2023-12-29T02:13:59;2.23;;;1.97;;
18661;SDS011;61528;49.456;11.098;2023-12-29T02:16:30;1.90;;;1.80;;
18661;SDS011;61528;49.456;11.098;2023-12-29T02:19:05;1.73;;;1.60;;
18661;SDS011;61528;49.456;11.098;2023-12-29T02:21:46;2.87;;;2.07;;
18661;SDS011;61528;49.456;11.098;2023-12-29T02:24:12;2.40;;;2.10;;
18661;SDS011;61528;49.456;11.098;2023-12-29T02:26:37;2.70;;;2.33;;
18661;SDS011;61528;49.456;11.098;2023-12-29T02:29:06;3.13;;;2.57;;
18661;SDS011;61528;49.456;11.098;2023-12-29T02:31:36;6.20;;;2.77;;
18661;SDS011;61528;49.456;11.098;2023-12-29T02:34:06;3.10;;;2.40;;
18661;SDS011;61528;49.456;11.098;2023-12-29T02:36:33;3.17;;;2.43;;
18661;SDS011;61528;49.456;11.098;2023-12-29T02:39:07;2.70;;;2.50;;
18661;SDS011;61528;49.456;11.098;2023-12-29T02:41:35;4.07;;;2.43;;
18661;SDS011;61528;49.456;11.098;2023-12-29T02:44:04;3.00;;;2.60;;
18661;SDS011;61528;49.456;11.098;2023-12-29T02:46:30;3.30;;;3.00;;
18661;SDS011;61528;49.456;11.098;2023-12-29T02:48:56;3.00;;;2.70;;
18661;SDS011;61528;49.456;11.098;2023-12-29T02:51:24;3.30;;;2.80;;
18661;SDS011;61528;49.456;11.098;2023-12-29T02:53:50;4.03;;;2.97;;
18661;SDS011;61528;49.456;11.098;2023-12-29T02:56:16;4.03;;;3.13;;
18661;SDS011;61528;49.456;11.098;2023-12-29T02:58:42;4.00;;;2.83;;
18661;SDS011;61528;49.456;11.098;2023-12-29T03:01:07;3.23;;;2.93;;
18661;SDS011;61528;49.456;11.098;2023-12-29T03:03:33;3.43;;;3.00;;
18661;SDS011;61528;49.456;11.098;2023-12-29T03:05:59;3.50;;;3.20;;
18661;SDS011;61528;49.456;11.098;2023-12-29T03:08:25;4.00;;;3.30;;
18661;SDS011;61528;49.456;11.098;2023-12-29T03:10:51;4.90;;;3.40;;
18661;SDS011;61528;49.456;11.098;2023-12-29T03:13:17;5.07;;;3.43;;
18661;SDS011;61528;49.456;11.098;2023-12-29T03:15:42;4.07;;;3.67;;
18661;SDS011;61528;49.456;11.098;2023-12-29T03:18:08;3.90;;;3.43;;
18661;SDS011;61528;49.456;11.098;2023-12-29T03:20:35;4.10;;;3.70;;
18661;SDS011;61528;49.456;11.098;2023-12-29T03:23:01;4.40;;;3.43;;
18661;SDS011;61528;49.456;11.098;2023-12-29T03:25:27;4.00;;;3.20;;
18661;SDS011;61528;49.456;11.098;2023-12-29T03:27:53;3.80;;;3.50;;
18661;SDS011;61528;49.456;11.098;2023-12-29T03:30:19;4.23;;;3.30;;
18661;SDS011;61528;49.456;11.098;2023-12-29T03:32:45;3.80;;;3.40;;
18661;SDS011;61528;49.456;11.098;2023-12-29T03:35:11;4.17;;;3.77;;
18661;SDS011;61528;49.456;11.098;2023-12-29T03:37:37;3.50;;;3.20;;
18661;SDS011;61528;49.456;11.098;2023-12-29T03:40:03;4.17;;;3.27;;
18661;SDS011;61528;49.456;11.098;2023-12-29T03:42:30;5.57;;;3.73;;
18661;SDS011;61528;49.456;11.098;2023-12-29T03:44:56;5.30;;;3.93;;
18661;SDS011;61528;49.456;11.098;2023-12-29T03:47:23;5.03;;;3.77;;
18661;SDS011;61528;49.456;11.098;2023-12-29T03:49:49;4.40;;;3.43;;
18661;SDS011;61528;49.456;11.098;2023-12-29T03:52:15;5.47;;;3.60;;
18661;SDS011;61528;49.456;11.098;2023-12-29T03:54:40;5.77;;;3.60;;
18661;SDS011;61528;49.456;11.098;2023-12-29T03:57:06;5.17;;;3.60;;
18661;SDS011;61528;49.456;11.098;2023-12-29T03:59:32;5.20;;;3.53;;
18661;SDS011;61528;49.456;11.098;2023-12-29T04:02:03;5.33;;;3.40;;
18661;SDS011;61528;49.456;11.098;2023-12-29T04:04:28;5.57;;;4.07;;
18661;SDS011;61528;49.456;11.098;2023-12-29T04:06:55;4.20;;;3.80;;
18661;SDS011;61528;49.456;11.098;2023-12-29T04:09:20;5.17;;;3.90;;
18661;SDS011;61528;49.456;11.098;2023-12-29T04:11:47;4.43;;;3.90;;
18661;SDS011;61528;49.456;11.098;2023-12-29T04:14:13;6.20;;;3.50;;
18661;SDS011;61528;49.456;11.098;2023-12-29T04:16:39;6.07;;;4.20;;
18661;SDS011;61528;49.456;11.098;2023-12-29T04:19:06;4.00;;;3.60;;
18661;SDS011;61528;49.456;11.098;2023-12-29T04:21:32;4.10;;;3.70;;
18661;SDS011;61528;49.456;11.098;2023-12-29T04:23:58;4.47;;;3.90;;
18661;SDS011;61528;49.456;11.098;2023-12-29T04:26:24;5.37;;;3.80;;
18661;SDS011;61528;49.456;11.098;2023-12-29T04:28:50;3.70;;;3.40;;
18661;SDS011;61528;49.456;11.098;2023-12-29T04:31:15;4.80;;;3.80;;
18661;SDS011;61528;49.456;11.098;2023-12-29T04:33:42;4.40;;;3.87;;
18661;SDS011;61528;49.456;11.098;2023-12-29T04:36:08;4.20;;;3.80;;
18661;SDS011;61528;49.456;11.098;2023-12-29T04:38:33;4.73;;;3.80;;
18661;SDS011;61528;49.456;11.098;2023-12-29T04:40:59;4.10;;;3.70;;
18661;SDS011;61528;49.456;11.098;2023-12-29T04:43:25;4.43;;;3.67;;
18661;SDS011;61528;49.456;11.098;2023-12-29T04:45:51;4.57;;;3.80;;
18661;SDS011;61528;49.456;11.098;2023-12-29T04:48:17;4.70;;;3.50;;
18661;SDS011;61528;49.456;11.098;2023-12-29T04:50:43;4.03;;;3.47;;
18661;SDS011;61528;49.456;11.098;2023-12-29T04:53:09;4.23;;;3.80;;
18661;SDS011;61528;49.456;11.098;2023-12-29T04:55:35;5.10;;;3.70;;
18661;SDS011;61528;49.456;11.098;2023-12-29T04:58:01;5.30;;;3.60;;
18661;SDS011;61528;49.456;11.098;2023-12-29T05:00:27;5.00;;;3.90;;
18661;SDS011;61528;49.456;11.098;2023-12-29T05:02:53;4.27;;;3.87;;
18661;SDS011;61528;49.456;11.098;2023-12-29T05:05:19;4.67;;;3.60;;
18661;SDS011;61528;49.456;11.098;2023-12-29T05:07:45;4.20;;;3.17;;
18661;SDS011;61528;49.456;11.098;2023-12-29T05:10:11;4.83;;;3.53;;
18661;SDS011;61528;49.456;11.098;2023-12-29T05:12:37;5.27;;;3.70;;
18661;SDS011;61528;49.456;11.098;2023-12-29T05:15:03;4.13;;;3.47;;
18661;SDS011;61528;49.456;11.098;2023-12-29T05:17:30;4.70;;;3.73;;
18661;SDS011;61528;49.456;11.098;2023-12-29T05:19:56;3.77;;;3.23;;
18661;SDS011;61528;49.456;11.098;2023-12-29T05:22:22;4.67;;;3.90;;
18661;SDS011;61528;49.456;11.098;2023-12-29T05:24:48;4.40;;;4.00;;
18661;SDS011;61528;49.456;11.098;2023-12-29T05:27:14;4.53;;;3.67;;
18661;SDS011;61528;49.456;11.098;2023-12-29T05:29:41;4.23;;;3.60;;
18661;SDS011;61528;49.456;11.098;2023-12-29T05:32:07;4.50;;;3.87;;
18661;SDS011;61528;49.456;11.098;2023-12-29T05:34:34;4.97;;;3.93;;
18661;SDS011;61528;49.456;11.098;2023-12-29T05:37:00;4.77;;;3.63;;
18661;SDS011;61528;49.456;11.098;2023-12-29T05:39:26;3.97;;;3.57;;
18661;SDS011;61528;49.456;11.098;2023-12-29T05:41:52;4.17;;;3.77;;
18661;SDS011;61528;49.456;11.098;2023-12-29T05:44:18;4.03;;;3.70;;
18661;SDS011;61528;49.456;11.098;2023-12-29T05:46:47;4.50;;;3.80;;
18661;SDS011;61528;49.456;11.098;2023-12-29T05:49:13;5.30;;;3.83;;
18661;SDS011;61528;49.456;11.098;2023-12-29T05:51:40;4.67;;;3.53;;
18661;SDS011;61528;49.456;11.098;2023-12-29T05:54:06;5.73;;;4.03;;
18661;SDS011;61528;49.456;11.098;2023-12-29T05:56:32;4.90;;;4.00;;
18661;SDS011;61528;49.456;11.098;2023-12-29T05:58:59;4.83;;;4.10;;
18661;SDS011;61528;49.456;11.098;2023-12-29T06:01:25;4.97;;;4.33;;
18661;SDS011;61528;49.456;11.098;2023-12-29T06:03:51;5.27;;;4.27;;
18661;SDS011;61528;49.456;11.098;2023-12-29T06:06:17;6.43;;;4.00;;
18661;SDS011;61528;49.456;11.098;2023-12-29T06:08:43;4.77;;;4.27;;
18661;SDS011;61528;49.456;11.098;2023-12-29T06:11:14;5.03;;;4.13;;
18661;SDS011;61528;49.456;11.098;2023-12-29T06:13:41;4.70;;;4.30;;
18661;SDS011;61528;49.456;11.098;2023-12-29T06:16:07;4.80;;;3.40;;
18661;SDS011;61528;49.456;11.098;2023-12-29T06:18:33;5.07;;;4.00;;
18661;SDS011;61528;49.456;11.098;2023-12-29T06:21:01;5.53;;;4.20;;
18661;SDS011;61528;49.456;11.098;2023-12-29T06:23:28;4.80;;;4.07;;
18661;SDS011;61528;49.456;11.098;2023-12-29T06:25:54;5.83;;;4.27;;
18661;SDS011;61528;49.456;11.098;2023-12-29T06:28:20;13.00;;;9.37;;
18661;SDS011;61528;49.456;11.098;2023-12-29T06:30:47;6.03;;;5.23;;
18661;SDS011;61528;49.456;11.098;2023-12-29T06:33:13;5.10;;;4.00;;
18661;SDS011;61528;49.456;11.098;2023-12-29T06:35:39;5.33;;;3.53;;
18661;SDS011;61528;49.456;11.098;2023-12-29T06:38:05;4.37;;;3.67;;
18661;SDS011;61528;49.456;11.098;2023-12-29T06:40:31;5.63;;;4.23;;
18661;SDS011;61528;49.456;11.098;2023-12-29T06:42:57;30.30;;;20.63;;
18661;SDS011;61528;49.456;11.098;2023-12-29T06:45:24;6.07;;;5.03;;
18661;SDS011;61528;49.456;11.098;2023-12-29T06:47:50;6.80;;;3.67;;
18661;SDS011;61528;49.456;11.098;2023-12-29T06:50:16;3.90;;;3.57;;
18661;SDS011;61528;49.456;11.098;2023-12-29T06:52:42;5.63;;;4.13;;
18661;SDS011;61528;49.456;11.098;2023-12-29T06:55:08;5.40;;;4.13;;
18661;SDS011;61528;49.456;11.098;2023-12-29T06:57:35;6.57;;;3.90;;
18661;SDS011;61528;49.456;11.098;2023-12-29T07:00:01;4.57;;;4.07;;
18661;SDS011;61528;49.456;11.098;2023-12-29T07:02:28;5.57;;;3.83;;
18661;SDS011;61528;49.456;11.098;2023-12-29T07:04:54;6.13;;;3.70;;
18661;SDS011;61528;49.456;11.098;2023-12-29T07:07:20;4.00;;;3.60;;
18661;SDS011;61528;49.456;11.098;2023-12-29T07:09:46;5.57;;;4.00;;
18661;SDS011;61528;49.456;11.098;2023-12-29T07:12:13;5.27;;;4.33;;
18661;SDS011;61528;49.456;11.098;2023-12-29T07:14:40;6.30;;;4.23;;
18661;SDS011;61528;49.456;11.098;2023-12-29T07:17:07;4.07;;;3.67;;
18661;SDS011;61528;49.456;11.098;2023-12-29T07:19:33;8.83;;;4.20;;
18661;SDS011;61528;49.456;11.098;2023-12-29T07:22:04;5.10;;;4.20;;
18661;SDS011;61528;49.456;11.098;2023-12-29T07:24:32;4.23;;;3.63;;
18661;SDS011;61528;49.456;11.098;2023-12-29T07:26:58;4.63;;;3.50;;
18661;SDS011;61528;49.456;11.098;2023-12-29T07:29:24;4.53;;;4.13;;
18661;SDS011;61528;49.456;11.098;2023-12-29T07:31:51;4.80;;;3.87;;
18661;SDS011;61528;49.456;11.098;2023-12-29T07:34:17;5.50;;;4.00;;
18661;SDS011;61528;49.456;11.098;2023-12-29T07:36:44;4.80;;;4.00;;
18661;SDS011;61528;49.456;11.098;2023-12-29T07:39:10;5.13;;;4.30;;
18661;SDS011;61528;49.456;11.098;2023-12-29T07:41:39;6.40;;;4.10;;
18661;SDS011;61528;49.456;11.098;2023-12-29T07:44:07;4.20;;;3.50;;
18661;SDS011;61528;49.456;11.098;2023-12-29T07:46:33;6.10;;;3.87;;
18661;SDS011;61528;49.456;11.098;2023-12-29T07:49:00;5.57;;;3.90;;
18661;SDS011;61528;49.456;11.098;2023-12-29T07:51:26;7.33;;;4.07;;
18661;SDS011;61528;49.456;11.098;2023-12-29T07:53:52;4.33;;;3.57;;
18661;SDS011;61528;49.456;11.098;2023-12-29T07:56:18;5.07;;;3.77;;
18661;SDS011;61528;49.456;11.098;2023-12-29T07:58:44;5.20;;;4.17;;
18661;SDS011;61528;49.456;11.098;2023-12-29T08:01:11;4.30;;;3.63;;
18661;SDS011;61528;49.456;11.098;2023-12-29T08:03:37;7.37;;;3.90;;
18661;SDS011;61528;49.456;11.098;2023-12-29T08:06:03;5.13;;;4.30;;
18661;SDS011;61528;49.456;11.098;2023-12-29T08:08:30;6.03;;;3.87;;
18661;SDS011;61528;49.456;11.098;2023-12-29T08:10:56;5.53;;;4.07;;
18661;SDS011;61528;49.456;11.098;2023-12-29T08:13:23;4.47;;;3.90;;
18661;SDS011;61528;49.456;11.098;2023-12-29T08:15:49;5.30;;;3.73;;
18661;SDS011;61528;49.456;11.098;2023-12-29T08:18:15;5.37;;;4.33;;
18661;SDS011;61528;49.456;11.098;2023-12-29T08:20:41;6.17;;;4.17;;
18661;SDS011;61528;49.456;11.098;2023-12-29T08:23:08;5.33;;;3.83;;
18661;SDS011;61528;49.456;11.098;2023-12-29T08:25:35;4.13;;;3.47;;
18661;SDS011;61528;49.456;11.098;2023-12-29T08:28:02;4.47;;;3.70;;
18661;SDS011;61528;49.456;11.098;2023-12-29T08:30:28;4.87;;;3.97;;
18661;SDS011;61528;49.456;11.098;2023-12-29T08:32:54;4.43;;;3.70;;
18661;SDS011;61528;49.456;11.098;2023-12-29T08:35:20;4.37;;;3.27;;
18661;SDS011;61528;49.456;11.098;2023-12-29T08:37:46;5.17;;;4.30;;
18661;SDS011;61528;49.456;11.098;2023-12-29T08:40:12;3.20;;;2.33;;
18661;SDS011;61528;49.456;11.098;2023-12-29T08:42:39;2.90;;;2.00;;
18661;SDS011;61528;49.456;11.098;2023-12-29T08:45:05;2.20;;;1.47;;
18661;SDS011;61528;49.456;11.098;2023-12-29T08:47:32;1.30;;;1.20;;
18661;SDS011;61528;49.456;11.098;2023-12-29T08:49:58;1.30;;;1.20;;
18661;SDS011;61528;49.456;11.098;2023-12-29T08:52:24;0.93;;;0.83;;
18661;SDS011;61528;49.456;11.098;2023-12-29T08:54:51;1.43;;;1.00;;
18661;SDS011;61528;49.456;11.098;2023-12-29T08:57:17;2.77;;;1.10;;
18661;SDS011;61528;49.456;11.098;2023-12-29T08:59:43;1.20;;;1.10;;
18661;SDS011;61528;49.456;11.098;2023-12-29T09:02:09;1.20;;;1.10;;
18661;SDS011;61528;49.456;11.098;2023-12-29T09:04:36;1.37;;;1.00;;
18661;SDS011;61528;49.456;11.098;2023-12-29T09:07:03;1.27;;;1.17;;
18661;SDS011;61528;49.456;11.098;2023-12-29T09:09:31;1.50;;;1.10;;
18661;SDS011;61528;49.456;11.098;2023-12-29T09:11:57;1.00;;;1.00;;
18661;SDS011;61528;49.456;11.098;2023-12-29T09:14:23;0.87;;;0.87;;
18661;SDS011;61528;49.456;11.098;2023-12-29T09:16:50;0.83;;;0.83;;
18661;SDS011;61528;49.456;11.098;2023-12-29T09:19:16;2.20;;;1.60;;
18661;SDS011;61528;49.456;11.098;2023-12-29T09:21:42;1.87;;;1.10;;
18661;SDS011;61528;49.456;11.098;2023-12-29T09:24:09;1.10;;;1.00;;
18661;SDS011;61528;49.456;11.098;2023-12-29T09:26:35;1.20;;;1.07;;
18661;SDS011;61528;49.456;11.098;2023-12-29T09:29:01;2.07;;;1.10;;
18661;SDS011;61528;49.456;11.098;2023-12-29T09:31:27;0.83;;;0.83;;
18661;SDS011;61528;49.456;11.098;2023-12-29T09:33:54;1.13;;;1.03;;
18661;SDS011;61528;49.456;11.098;2023-12-29T09:36:22;1.93;;;1.10;;
18661;SDS011;61528;49.456;11.098;2023-12-29T09:38:48;1.20;;;1.10;;
18661;SDS011;61528;49.456;11.098;2023-12-29T09:41:14;1.00;;;1.00;;
18661;SDS011;61528;49.456;11.098;2023-12-29T09:43:41;1.17;;;1.07;;
18661;SDS011;61528;49.456;11.098;2023-12-29T09:46:08;1.17;;;1.10;;
18661;SDS011;61528;49.456;11.098;2023-12-29T09:48:35;1.57;;;1.00;;
18661;SDS011;61528;49.456;11.098;2023-12-29T09:51:05;1.50;;;1.40;;
18661;SDS011;61528;49.456;11.098;2023-12-29T09:53:32;1.10;;;1.00;;
18661;SDS011;61528;49.456;11.098;2023-12-29T09:56:00;0.97;;;0.97;;
18661;SDS011;61528;49.456;11.098;2023-12-29T09:58:28;1.13;;;1.00;;
18661;SDS011;61528;49.456;11.098;2023-12-29T10:00:54;1.63;;;1.13;;
18661;SDS011;61528;49.456;11.098;2023-12-29T10:03:21;1.50;;;1.13;;
18661;SDS011;61528;49.456;11.098;2023-12-29T10:05:51;1.30;;;1.20;;
18661;SDS011;61528;49.456;11.098;2023-12-29T10:08:22;1.30;;;1.20;;
18661;SDS011;61528;49.456;11.098;2023-12-29T10:10:48;1.47;;;1.37;;
18661;SDS011;61528;49.456;11.098;2023-12-29T10:13:16;1.57;;;1.13;;
18661;SDS011;61528;49.456;11.098;2023-12-29T10:18:22;1.93;;;1.40;;
18661;SDS011;61528;49.456;11.098;2023-12-29T10:25:59;2.00;;;1.10;;
18661;SDS011;61528;49.456;11.098;2023-12-29T10:28:26;1.23;;;1.23;;
18661;SDS011;61528;49.456;11.098;2023-12-29T10:30:52;1.90;;;1.40;;
18661;SDS011;61528;49.456;11.098;2023-12-29T10:33:19;3.23;;;2.33;;
18661;SDS011;61528;49.456;11.098;2023-12-29T10:35:59;4.77;;;2.70;;
18661;SDS011;61528;49.456;11.098;2023-12-29T10:38:31;3.43;;;3.10;;
18661;SDS011;61528;49.456;11.098;2023-12-29T10:41:10;3.77;;;3.47;;
18661;SDS011;61528;49.456;11.098;2023-12-29T10:43:43;3.73;;;3.07;;
18661;SDS011;61528;49.456;11.098;2023-12-29T10:46:10;5.43;;;3.53;;
18661;SDS011;61528;49.456;11.098;2023-12-29T10:48:37;3.70;;;3.37;;
18661;SDS011;61528;49.456;11.098;2023-12-29T10:51:04;4.13;;;3.57;;
18661;SDS011;61528;49.456;11.098;2023-12-29T10:53:31;4.80;;;3.57;;
18661;SDS011;61528;49.456;11.098;2023-12-29T10:55:58;5.97;;;3.60;;
18661;SDS011;61528;49.456;11.098;2023-12-29T10:58:25;5.43;;;3.80;;
18661;SDS011;61528;49.456;11.098;2023-12-29T11:00:55;5.10;;;3.63;;
18661;SDS011;61528;49.456;11.098;2023-12-29T11:03:22;4.00;;;3.43;;
18661;SDS011;61528;49.456;11.098;2023-12-29T11:05:49;4.00;;;3.57;;
18661;SDS011;61528;49.456;11.098;2023-12-29T11:08:16;4.10;;;3.70;;
18661;SDS011;61528;49.456;11.098;2023-12-29T11:10:42;5.57;;;3.70;;
18661;SDS011;61528;49.456;11.098;2023-12-29T11:13:10;6.03;;;3.97;;
18661;SDS011;61528;49.456;11.098;2023-12-29T11:15:45;4.93;;;3.90;;
18661;SDS011;61528;49.456;11.098;2023-12-29T11:18:14;4.97;;;3.90;;
18661;SDS011;61528;49.456;11.098;2023-12-29T11:20:41;3.90;;;3.50;;
18661;SDS011;61528;49.456;11.098;2023-12-29T11:23:08;6.17;;;3.90;;
18661;SDS011;61528;49.456;11.098;2023-12-29T11:25:35;4.47;;;3.77;;
18661;SDS011;61528;49.456;11.098;2023-12-29T11:28:02;4.63;;;3.80;;
18661;SDS011;61528;49.456;11.098;2023-12-29T11:30:29;5.37;;;3.97;;
18661;SDS011;61528;49.456;11.098;2023-12-29T11:33:13;4.47;;;3.93;;
18661;SDS011;61528;49.456;11.098;2023-12-29T11:40:50;6.40;;;4.30;;
18661;SDS011;61528;49.456;11.098;2023-12-29T11:43:18;5.63;;;4.00;;
18661;SDS011;61528;49.456;11.098;2023-12-29T11:45:44;6.03;;;4.27;;
18661;SDS011;61528;49.456;11.098;2023-12-29T11:48:10;4.23;;;3.83;;
18661;SDS011;61528;49.456;11.098;2023-12-29T11:50:38;4.53;;;3.97;;
18661;SDS011;61528;49.456;11.098;2023-12-29T11:53:06;4.23;;;3.40;;
18661;SDS011;61528;49.456;11.098;2023-12-29T11:55:34;4.27;;;3.60;;
18661;SDS011;61528;49.456;11.098;2023-12-29T11:58:00;4.53;;;3.80;;
18661;SDS011;61528;49.456;11.098;2023-12-29T12:00:46;4.00;;;3.60;;
18661;SDS011;61528;49.456;11.098;2023-12-29T12:03:13;4.13;;;3.30;;
18661;SDS011;61528;49.456;11.098;2023-12-29T12:05:49;4.23;;;2.97;;
18661;SDS011;61528;49.456;11.098;2023-12-29T12:08:35;3.83;;;2.63;;
18661;SDS011;61528;49.456;11.098;2023-12-29T12:13:46;2.40;;;1.87;;
18661;SDS011;61528;49.456;11.098;2023-12-29T12:19:16;2.03;;;1.73;;
18661;SDS011;61528;49.456;11.098;2023-12-29T12:21:45;2.50;;;1.80;;
18661;SDS011;61528;49.456;11.098;2023-12-29T12:24:13;2.40;;;1.50;;
18661;SDS011;61528;49.456;11.098;2023-12-29T12:26:39;2.07;;;1.33;;
18661;SDS011;61528;49.456;11.098;2023-12-29T12:29:07;2.47;;;1.60;;
18661;SDS011;61528;49.456;11.098;2023-12-29T12:31:34;2.70;;;1.60;;
18661;SDS011;61528;49.456;11.098;2023-12-29T12:34:00;1.40;;;1.10;;
18661;SDS011;61528;49.456;11.098;2023-12-29T12:36:26;1.83;;;1.10;;
18661;SDS011;61528;49.456;11.098;2023-12-29T12:38:56;1.67;;;1.00;;
18661;SDS011;61528;49.456;11.098;2023-12-29T12:41:25;1.13;;;1.03;;
18661;SDS011;61528;49.456;11.098;2023-12-29T12:46:32;1.00;;;0.90;;
18661;SDS011;61528;49.456;11.098;2023-12-29T12:49:09;1.17;;;1.03;;
18661;SDS011;61528;49.456;11.098;2023-12-29T12:51:54;1.20;;;0.93;;
18661;SDS011;61528;49.456;11.098;2023-12-29T12:54:39;2.57;;;0.90;;
18661;SDS011;61528;49.456;11.098;2023-12-29T12:57:24;1.10;;;1.00;;
18661;SDS011;61528;49.456;11.098;2023-12-29T13:00:08;2.83;;;1.00;;
18661;SDS011;61528;49.456;11.098;2023-12-29T13:02:53;0.77;;;0.77;;
18661;SDS011;61528;49.456;11.098;2023-12-29T13:05:37;1.37;;;0.93;;
18661;SDS011;61528;49.456;11.098;2023-12-29T13:08:22;2.53;;;1.23;;
18661;SDS011;61528;49.456;11.098;2023-12-29T13:11:06;1.33;;;1.20;;
18661;SDS011;61528;49.456;11.098;2023-12-29T13:13:51;1.30;;;1.20;;
18661;SDS011;61528;49.456;11.098;2023-12-29T13:16:36;0.80;;;0.80;;
18661;SDS011;61528;49.456;11.098;2023-12-29T13:19:22;1.13;;;1.03;;
18661;SDS011;61528;49.456;11.098;2023-12-29T13:22:07;0.90;;;0.90;;
18661;SDS011;61528;49.456;11.098;2023-12-29T13:24:53;1.40;;;0.80;;
18661;SDS011;61528;49.456;11.098;2023-12-29T13:27:38;1.23;;;1.13;;
18661;SDS011;61528;49.456;11.098;2023-12-29T13:30:23;1.80;;;1.20;;
18661;SDS011;61528;49.456;11.098;2023-12-29T13:33:09;1.00;;;0.70;;
18661;SDS011;61528;49.456;11.098;2023-12-29T13:42:37;1.67;;;1.30;;
18661;SDS011;61528;49.456;11.098;2023-12-29T13:45:42;1.10;;;1.00;;
18661;SDS011;61528;49.456;11.098;2023-12-29T13:48:45;1.07;;;0.97;;
18661;SDS011;61528;49.456;11.098;2023-12-29T13:51:50;0.80;;;0.80;;
18661;SDS011;61528;49.456;11.098;2023-12-29T13:54:53;1.43;;;1.03;;
18661;SDS011;61528;49.456;11.098;2023-12-29T13:57:56;2.37;;;1.00;;
18661;SDS011;61528;49.456;11.098;2023-12-29T14:00:59;1.10;;;1.00;;
18661;SDS011;61528;49.456;11.098;2023-12-29T14:04:06;3.60;;;1.97;;
18661;SDS011;61528;49.456;11.098;2023-12-29T14:10:15;0.70;;;0.70;;
18661;SDS011;61528;49.456;11.098;2023-12-29T14:16:27;1.00;;;0.90;;
18661;SDS011;61528;49.456;11.098;2023-12-29T14:19:34;1.93;;;1.20;;
18661;SDS011;61528;49.456;11.098;2023-12-29T14:22:37;1.20;;;1.10;;
18661;SDS011;61528;49.456;11.098;2023-12-29T14:25:22;2.00;;;1.13;;
18661;SDS011;61528;49.456;11.098;2023-12-29T14:28:19;0.90;;;0.90;;
18661;SDS011;61528;49.456;11.098;2023-12-29T14:31:04;1.10;;;1.00;;
18661;SDS011;61528;49.456;11.098;2023-12-29T14:33:49;1.37;;;1.17;;
18661;SDS011;61528;49.456;11.098;2023-12-29T14:36:34;1.17;;;1.00;;
18661;SDS011;61528;49.456;11.098;2023-12-29T14:39:19;2.13;;;1.30;;
18661;SDS011;61528;49.456;11.098;2023-12-29T14:42:03;2.77;;;1.60;;
18661;SDS011;61528;49.456;11.098;2023-12-29T14:44:48;2.40;;;1.60;;
18661;SDS011;61528;49.456;11.098;2023-12-29T14:47:33;1.23;;;1.13;;
18661;SDS011;61528;49.456;11.098;2023-12-29T14:50:18;4.60;;;1.30;;
18661;SDS011;61528;49.456;11.098;2023-12-29T14:53:03;1.27;;;0.90;;
18661;SDS011;61528;49.456;11.098;2023-12-29T14:55:48;1.23;;;0.90;;
18661;SDS011;61528;49.456;11.098;2023-12-29T14:58:33;1.37;;;0.90;;
18661;SDS011;61528;49.456;11.098;2023-12-29T15:01:18;0.83;;;0.83;;
18661;SDS011;61528;49.456;11.098;2023-12-29T15:04:03;1.63;;;0.80;;
18661;SDS011;61528;49.456;11.098;2023-12-29T15:06:47;0.80;;;0.80;;
18661;SDS011;61528;49.456;11.098;2023-12-29T15:09:31;0.80;;;0.80;;
18661;SDS011;61528;49.456;11.098;2023-12-29T15:12:15;0.80;;;0.80;;
18661;SDS011;61528;49.456;11.098;2023-12-29T15:15:00;0.70;;;0.70;;
18661;SDS011;61528;49.456;11.098;2023-12-29T15:17:44;1.37;;;1.03;;
18661;SDS011;61528;49.456;11.098;2023-12-29T15:20:28;1.33;;;1.23;;
18661;SDS011;61528;49.456;11.098;2023-12-29T15:23:12;2.53;;;1.80;;
18661;SDS011;61528;49.456;11.098;2023-12-29T15:25:56;1.67;;;1.23;;